Saltillo, PA (17253)

7:14 PM EDT on May 05, 2015 (GMT -0400)
Three Springs, PA | | Change Station
CLOSE
Current Station
Personal Weather Station
Location: Three Springs, PA
Elevation: 807 ft
Nearby Weather Stations

Elev 807 ft 40.21 °N, 77.96 °W | Updated 41 seconds ago

Partly Cloudy
Partly Cloudy
77.7 °F
Feels Like 80 °F
N
0.0
Wind Variable Wind from WSW
Gusts 0.0 mph

Today
High -- | Low -- °F
--% Chance of Precip.
Yesterday
High -- | Low -- °F
Precip. -- in
6:07 AM 8:10 PM
Waning Gibbous, 97% visible
Pressure 30.20 in
Visibility 10.0 miles
Clouds Few 9500 ft
Heat Index 80 °F
Dew Point 66 °F
Humidity 68%
Rainfall 0.00 in
Snow Depth Not available.
UV 0.0 out of 12
Pollen 9.60 out of 12
Air Quality Not available.
Flu Activity Sporadic
METAR KAOO 052253Z AUTO 29006KT 10SM FEW095 22/12 A3022 RMK AO2 SLP226 T02220122

More Conditions Fewer Conditions

Pressure 30.20 in
Visibility 10.0 miles
Clouds Few 9500 ft
Heat Index 80 °F
Dew Point 66 °F
Humidity 68%
Rainfall 0.00 in
Snow Depth Not available.
UV 0.0 out of 12
Pollen 9.60 out of 12
Air Quality Not available.
Flu Activity Sporadic
METAR KAOO 052253Z AUTO 29006KT 10SM FEW095 22/12 A3022 RMK AO2 SLP226 T02220122

More Conditions Fewer Conditions

10-Day Weather Forecast

Almanac

Astronomy

May. 05, 2015 Rise Set
Actual Time
Civil Twilight
Nautical Twilight
Astronomical Twilight
Moon
Length of Visible Light
Length of Day
Tomorrow will be .
, % of the Moon is Illuminated

Today's Extremes

State Highs State Lows

Community

WunderPhotos

Upload Photos

1,819,008 photos uploaded!

WunderBlogs® & News

Nearby

Air Quality

  Air Quality AQ Index Pollutant
Not available.

Snow Depth

Station Depth Elevation

Earthquake Activity

City Distance Mag. Time & Date
Minimum magnitude displayed is 2.5.

Coastal Water Temperatures

Place Temperature

Stations

Nearby Weather Stations

Station Location Temp. Windchill Dew Point Humidity Wind Precip. Elev Updated Type